createdAt,value
2023-05-14T00:01:39.321Z,57.87
2023-05-14T00:04:11.893Z,57.50
2023-05-14T00:06:41.873Z,57.10
2023-05-14T00:09:11.790Z,57.37
2023-05-14T00:11:41.937Z,57.78
2023-05-14T00:14:11.873Z,58.36
2023-05-14T00:16:41.870Z,59.06
2023-05-14T00:19:14.650Z,59.35
2023-05-14T00:21:44.683Z,59.29
2023-05-14T00:24:14.710Z,59.33
2023-05-14T00:26:44.725Z,59.38
2023-05-14T00:29:14.854Z,60.89
2023-05-14T00:31:44.901Z,60.67
2023-05-14T00:34:17.428Z,60.66
2023-05-14T00:37:07.032Z,61.52
2023-05-14T00:39:39.470Z,61.32
2023-05-14T00:42:16.144Z,62.18
2023-05-14T00:44:51.728Z,61.94
2023-05-14T00:47:35.115Z,61.59
2023-05-14T00:50:09.931Z,61.33
2023-05-14T00:52:43.601Z,61.28
2023-05-14T00:55:22.594Z,61.55
2023-05-14T00:57:53.738Z,61.80
2023-05-14T01:00:24.170Z,61.38
2023-05-14T01:02:54.389Z,61.06
2023-05-14T01:05:28.929Z,61.87
2023-05-14T01:08:05.643Z,61.08
2023-05-14T01:10:42.167Z,60.66
2023-05-14T01:13:16.863Z,61.13
2023-05-14T01:15:47.674Z,61.51
2023-05-14T01:18:21.647Z,61.14
2023-05-14T01:20:59.136Z,61.56
2023-05-14T01:23:34.226Z,61.61
2023-05-14T01:26:10.109Z,60.76
2023-05-14T01:29:05.213Z,61.23
2023-05-14T01:32:01.430Z,61.46
2023-05-14T01:36:10.972Z,61.21
2023-05-14T01:39:19.823Z,61.15
2023-05-14T01:45:25.963Z,60.62
2023-05-14T01:47:56.501Z,60.69
2023-05-14T01:50:26.541Z,60.88
2023-05-14T01:52:57.003Z,61.04
2023-05-14T01:55:36.020Z,61.16
2023-05-14T01:58:09.803Z,61.77
2023-05-14T02:00:51.000Z,62.42
2023-05-14T02:03:20.866Z,63.35
2023-05-14T02:09:00.038Z,63.05
2023-05-14T02:20:52.287Z,61.79
2023-05-14T02:23:31.071Z,62.11
2023-05-14T02:26:09.799Z,62.06
2023-05-14T02:28:39.776Z,61.92
2023-05-14T02:31:09.615Z,62.68
2023-05-14T02:33:39.617Z,63.33
2023-05-14T02:36:12.294Z,64.00
2023-05-14T02:38:42.126Z,64.16
2023-05-14T02:41:12.065Z,64.04
2023-05-14T02:43:41.903Z,64.11
2023-05-14T02:46:11.748Z,64.48
2023-05-14T02:48:41.701Z,64.50
2023-05-14T02:51:16.360Z,64.72
2023-05-14T02:53:46.445Z,64.81
2023-05-14T02:56:16.665Z,65.41
2023-05-14T02:58:46.594Z,65.59
2023-05-14T03:01:18.980Z,65.07
2023-05-14T03:03:49.577Z,65.07
2023-05-14T03:06:22.580Z,64.97
2023-05-14T03:08:52.548Z,65.23
2023-05-14T03:11:22.430Z,65.61
2023-05-14T03:13:52.384Z,65.53
2023-05-14T03:16:22.314Z,65.32
2023-05-14T03:18:52.968Z,65.00
2023-05-14T03:21:25.621Z,64.57
2023-05-14T03:23:55.758Z,64.27
2023-05-14T03:26:25.639Z,64.72
2023-05-14T03:28:56.168Z,64.86
2023-05-14T03:31:26.281Z,65.02
2023-05-14T03:33:59.620Z,65.20
2023-05-14T03:36:32.178Z,65.31
2023-05-14T03:39:03.412Z,65.09
2023-05-14T03:41:33.363Z,64.98
2023-05-14T03:44:03.518Z,65.13
2023-05-14T03:46:33.305Z,65.48
2023-05-14T03:49:03.642Z,65.75
2023-05-14T03:51:36.208Z,65.65
2023-05-14T03:54:08.365Z,64.96
2023-05-14T03:56:38.285Z,65.56
2023-05-14T03:59:08.200Z,65.94
2023-05-14T04:01:38.080Z,66.16
2023-05-14T04:04:08.211Z,66.31
2023-05-14T04:06:40.698Z,66.28
2023-05-14T04:09:11.042Z,66.14
2023-05-14T04:11:40.853Z,66.39
2023-05-14T04:14:10.755Z,66.68
2023-05-14T04:16:40.871Z,66.28
2023-05-14T04:19:11.038Z,66.56
2023-05-14T04:21:43.712Z,67.01
2023-05-14T04:24:13.549Z,67.29
2023-05-14T04:26:43.364Z,67.74
2023-05-14T04:29:13.169Z,67.96
2023-05-14T04:31:43.402Z,67.68
2023-05-14T04:34:13.385Z,68.03
2023-05-14T04:36:45.912Z,67.99
2023-05-14T04:39:15.837Z,68.44
2023-05-14T04:41:45.708Z,69.25
2023-05-14T04:44:16.127Z,69.50
2023-05-14T04:46:45.914Z,69.61
2023-05-14T04:49:15.768Z,68.70
2023-05-14T04:51:48.377Z,68.83
2023-05-14T04:54:18.272Z,68.57
2023-05-14T04:56:48.089Z,68.69
2023-05-14T04:59:17.901Z,68.68
2023-05-14T05:01:48.070Z,67.16
2023-05-14T05:04:18.166Z,67.80
2023-05-14T05:06:50.952Z,66.30
2023-05-14T05:09:20.990Z,66.80
2023-05-14T05:11:50.727Z,67.81
2023-05-14T05:14:20.921Z,67.41
2023-05-14T05:16:50.876Z,67.46
2023-05-14T05:19:26.527Z,66.87
2023-05-14T05:22:04.819Z,66.69
2023-05-14T05:24:34.823Z,66.57
2023-05-14T05:27:05.667Z,66.09
2023-05-14T05:29:35.260Z,66.27
2023-05-14T05:32:05.173Z,65.04
2023-05-14T05:34:35.112Z,65.94
2023-05-14T05:37:09.467Z,66.16
2023-05-14T05:39:39.383Z,65.37
2023-05-14T05:42:10.631Z,66.46
2023-05-14T05:44:40.487Z,64.93
2023-05-14T05:47:10.587Z,66.24
2023-05-14T05:49:40.318Z,65.15
2023-05-14T05:52:13.253Z,63.92
2023-05-14T05:54:43.007Z,64.55
2023-05-14T05:57:12.833Z,65.04
2023-05-14T05:59:42.649Z,62.69
2023-05-14T06:02:12.669Z,64.49
2023-05-14T06:04:42.557Z,62.44
2023-05-14T06:07:15.006Z,62.73
2023-05-14T06:09:44.819Z,63.05
2023-05-14T06:12:14.581Z,61.03
2023-05-14T06:14:44.434Z,60.67
2023-05-14T06:17:14.294Z,62.37
2023-05-14T06:19:44.117Z,62.51
2023-05-14T06:22:16.797Z,64.75
2023-05-14T06:24:46.597Z,61.57
2023-05-14T06:27:16.497Z,61.40
2023-05-14T06:32:31.394Z,60.80
2023-05-14T06:35:01.404Z,62.24
2023-05-14T06:37:34.417Z,61.56
2023-05-14T06:40:04.786Z,60.76
2023-05-14T06:42:34.855Z,59.10
2023-05-14T06:45:08.786Z,59.04
2023-05-14T06:47:38.920Z,57.88
2023-05-14T06:50:10.898Z,59.50
2023-05-14T06:52:44.165Z,59.88
2023-05-14T06:55:14.256Z,59.12
2023-05-14T06:57:44.825Z,58.08
2023-05-14T07:00:15.835Z,57.66
2023-05-14T07:02:46.012Z,59.83
2023-05-14T07:05:16.435Z,58.96
2023-05-14T07:07:49.140Z,55.99
2023-05-14T07:10:19.345Z,53.02
2023-05-14T07:12:49.516Z,52.50
2023-05-14T07:15:19.695Z,54.53
2023-05-14T07:17:49.743Z,51.36
2023-05-14T07:20:19.879Z,55.31
2023-05-14T07:22:52.524Z,53.86
2023-05-14T07:25:22.444Z,52.49
2023-05-14T07:27:52.666Z,51.83
2023-05-14T07:30:23.244Z,51.00
2023-05-14T07:32:53.655Z,52.74
2023-05-14T07:35:23.982Z,50.90
2023-05-14T07:37:56.859Z,51.27
2023-05-14T07:40:27.856Z,49.14
2023-05-14T07:42:57.967Z,47.92
2023-05-14T07:45:28.066Z,48.53
2023-05-14T07:47:58.468Z,49.99
2023-05-14T07:50:28.514Z,48.81
2023-05-14T07:53:01.230Z,47.82
2023-05-14T07:55:31.685Z,46.18
2023-05-14T07:58:01.526Z,48.09
2023-05-14T08:00:31.682Z,48.95
2023-05-14T08:03:01.946Z,48.24
2023-05-14T08:05:33.174Z,47.46
2023-05-14T08:08:05.905Z,45.64
2023-05-14T08:10:36.134Z,47.13
2023-05-14T08:13:06.507Z,47.17
2023-05-14T08:15:36.651Z,46.97
2023-05-14T08:18:07.101Z,46.66
2023-05-14T08:20:37.089Z,43.83
2023-05-14T08:23:10.092Z,42.17
2023-05-14T08:25:40.212Z,42.90
2023-05-14T08:28:10.537Z,42.25
2023-05-14T08:30:40.673Z,43.86
2023-05-14T08:33:10.811Z,43.06
2023-05-14T08:35:40.912Z,44.13
2023-05-14T08:38:13.741Z,43.43
2023-05-14T08:40:44.588Z,45.84
2023-05-14T08:43:15.137Z,45.56
2023-05-14T08:45:45.163Z,43.00
2023-05-14T08:48:19.077Z,43.43
2023-05-14T08:50:49.924Z,43.27
2023-05-14T08:53:22.670Z,41.75
2023-05-14T08:55:54.164Z,39.86
2023-05-14T08:58:25.921Z,44.89
2023-05-14T09:00:57.072Z,43.05
2023-05-14T09:03:27.369Z,43.94
2023-05-14T09:05:59.370Z,43.66
2023-05-14T09:08:33.579Z,42.14
2023-05-14T09:11:03.677Z,39.70
2023-05-14T09:13:34.084Z,38.07
2023-05-14T09:16:04.557Z,36.99
2023-05-14T09:18:34.743Z,36.53
2023-05-14T09:21:05.097Z,35.43
2023-05-14T09:23:37.892Z,35.89
2023-05-14T09:26:08.743Z,35.01
2023-05-14T09:28:38.878Z,35.90
2023-05-14T09:31:08.949Z,34.34
2023-05-14T09:33:39.110Z,37.09
2023-05-14T09:36:09.890Z,35.10
2023-05-14T09:38:42.767Z,36.35
2023-05-14T09:41:13.015Z,37.35
2023-05-14T09:43:43.121Z,36.01
2023-05-14T09:46:13.530Z,36.30
2023-05-14T09:48:43.509Z,36.53
2023-05-14T09:51:14.514Z,35.75
2023-05-14T09:53:48.095Z,37.25
2023-05-14T09:56:19.106Z,34.09
2023-05-14T09:58:49.199Z,35.60
2023-05-14T10:01:21.840Z,37.24
2023-05-14T10:03:52.750Z,34.74
2023-05-14T10:06:26.821Z,36.82
2023-05-14T10:09:00.466Z,38.13
2023-05-14T10:11:34.987Z,36.40
2023-05-14T10:14:08.144Z,38.53
2023-05-14T10:16:41.143Z,38.65
2023-05-14T10:19:13.279Z,40.49
2023-05-14T10:21:44.573Z,38.48
2023-05-14T10:24:17.610Z,38.82
2023-05-14T10:26:48.652Z,38.02
2023-05-14T10:29:18.723Z,38.43
2023-05-14T10:31:54.004Z,34.89
2023-05-14T10:34:37.997Z,32.70
2023-05-14T10:37:08.728Z,31.39
2023-05-14T10:40:01.080Z,36.32
2023-05-14T10:42:32.264Z,38.10
2023-05-14T10:45:06.678Z,36.86
2023-05-14T10:47:37.630Z,36.31
2023-05-14T10:50:09.719Z,34.78
2023-05-14T10:52:40.124Z,36.00
2023-05-14T10:55:15.275Z,39.39
2023-05-14T10:57:46.589Z,37.22
2023-05-14T11:00:17.846Z,35.04
2023-05-14T11:02:48.202Z,36.66
2023-05-14T11:05:18.440Z,37.38
2023-05-14T11:07:50.217Z,37.46
2023-05-14T11:10:26.137Z,35.36
2023-05-14T11:12:56.392Z,38.69
2023-05-14T11:15:28.749Z,37.29
2023-05-14T11:17:59.015Z,37.81
2023-05-14T11:20:29.338Z,38.29
2023-05-14T11:22:59.351Z,39.10
2023-05-14T11:25:31.962Z,38.75
2023-05-14T11:28:02.005Z,36.63
2023-05-14T11:30:34.540Z,37.79
2023-05-14T11:33:04.692Z,38.33
2023-05-14T11:35:35.421Z,36.64
2023-05-14T11:38:06.822Z,35.97
2023-05-14T11:40:40.566Z,35.14
2023-05-14T11:43:10.571Z,35.18
2023-05-14T11:45:40.695Z,36.60
2023-05-14T11:48:18.228Z,36.16
2023-05-14T11:50:49.886Z,35.70
2023-05-14T11:53:21.288Z,37.15
2023-05-14T11:55:54.402Z,35.73
2023-05-14T11:58:24.810Z,37.13
2023-05-14T12:00:54.685Z,34.58
2023-05-14T12:03:26.793Z,36.41
2023-05-14T12:05:59.868Z,37.48
2023-05-14T12:08:31.467Z,38.78
2023-05-14T12:11:04.646Z,36.02
2023-05-14T12:13:35.024Z,37.27
2023-05-14T12:16:05.681Z,38.54
2023-05-14T12:18:35.987Z,35.25
2023-05-14T12:21:08.143Z,33.58
2023-05-14T12:23:38.401Z,33.58
2023-05-14T12:26:12.233Z,32.10
2023-05-14T12:28:44.755Z,32.18
2023-05-14T12:31:15.418Z,31.52
2023-05-14T12:37:12.747Z,33.91
2023-05-14T12:39:46.341Z,33.30
2023-05-14T12:42:51.917Z,31.55
2023-05-14T12:45:43.495Z,29.85
2023-05-14T12:48:15.258Z,30.53
2023-05-14T12:51:07.314Z,32.26
2023-05-14T12:53:55.018Z,33.48
2023-05-14T12:56:38.294Z,32.59
2023-05-14T12:59:29.378Z,32.22
2023-05-14T13:02:17.429Z,33.16
2023-05-14T13:05:12.042Z,32.91
2023-05-14T13:11:39.397Z,35.71
2023-05-14T13:14:11.899Z,35.36
2023-05-14T13:16:41.731Z,35.42
2023-05-14T13:19:11.819Z,31.60
2023-05-14T13:21:41.836Z,34.27
2023-05-14T13:24:11.878Z,34.64
2023-05-14T13:26:41.829Z,35.66
2023-05-14T13:29:14.367Z,36.02
2023-05-14T13:31:47.307Z,35.86
2023-05-14T13:34:17.631Z,37.40
2023-05-14T13:36:50.051Z,36.11
2023-05-14T13:39:23.034Z,38.15
2023-05-14T13:41:53.549Z,37.59
2023-05-14T13:44:25.758Z,34.87
2023-05-14T13:46:55.880Z,38.38
2023-05-14T13:49:25.817Z,37.79
2023-05-14T13:51:55.721Z,38.81
2023-05-14T13:54:25.646Z,36.21
2023-05-14T13:56:55.577Z,37.24
2023-05-14T13:59:28.074Z,37.06
2023-05-14T14:01:58.024Z,38.17
2023-05-14T14:04:29.227Z,36.02
2023-05-14T14:06:59.082Z,35.18
2023-05-14T14:09:29.064Z,34.47
2023-05-14T14:11:58.864Z,34.11
2023-05-14T14:14:31.537Z,35.25
2023-05-14T14:17:01.363Z,34.13
2023-05-14T14:19:31.285Z,33.15
2023-05-14T14:22:01.291Z,35.85
2023-05-14T14:24:31.307Z,37.69
2023-05-14T14:27:02.436Z,36.05
2023-05-14T14:29:35.644Z,33.98
2023-05-14T14:32:05.620Z,33.56
2023-05-14T14:34:35.457Z,31.80
2023-05-14T14:37:05.281Z,35.45
2023-05-14T14:39:35.037Z,37.65
2023-05-14T14:42:04.994Z,34.82
2023-05-14T14:44:37.554Z,35.19
2023-05-14T14:47:08.115Z,35.16
2023-05-14T14:49:37.924Z,38.06
2023-05-14T14:52:08.203Z,39.28
2023-05-14T14:54:37.932Z,39.72
2023-05-14T14:57:08.536Z,39.31
2023-05-14T14:59:41.531Z,36.98
2023-05-14T15:02:15.017Z,40.86
2023-05-14T15:04:45.135Z,39.76
2023-05-14T15:07:16.146Z,40.01
2023-05-14T15:09:46.160Z,40.07
2023-05-14T15:12:17.258Z,40.59
2023-05-14T15:14:49.846Z,40.56
2023-05-14T15:17:19.707Z,41.30
2023-05-14T15:19:49.488Z,40.18
2023-05-14T15:22:19.367Z,40.80
2023-05-14T15:24:49.243Z,41.08
2023-05-14T15:27:19.183Z,41.85
2023-05-14T15:29:51.782Z,41.42
2023-05-14T15:32:21.821Z,40.34
2023-05-14T15:34:51.722Z,40.27
2023-05-14T15:37:21.800Z,40.75
2023-05-14T15:39:51.766Z,40.73
2023-05-14T15:42:22.578Z,40.84
2023-05-14T15:44:55.038Z,41.63
2023-05-14T15:47:24.993Z,40.60
2023-05-14T19:38:58.118Z,54.34
2023-05-14T19:41:28.125Z,54.17
2023-05-14T19:43:58.074Z,54.23
2023-05-14T19:46:28.342Z,54.68
2023-05-14T19:48:58.526Z,54.80
2023-05-14T19:51:28.997Z,54.84
2023-05-14T19:54:01.753Z,55.42
2023-05-14T19:56:31.848Z,55.43
2023-05-14T19:59:02.154Z,55.43
2023-05-14T20:01:32.602Z,54.68
2023-05-14T20:04:03.069Z,54.01
2023-05-14T20:06:34.669Z,54.46
2023-05-14T20:09:07.396Z,55.35
2023-05-14T20:11:37.668Z,55.41
2023-05-14T20:14:07.842Z,56.08
2023-05-14T20:16:38.130Z,56.28
2023-05-14T20:19:08.407Z,56.58
2023-05-14T20:21:38.741Z,57.02
2023-05-14T20:24:11.625Z,56.95
2023-05-14T20:26:41.809Z,57.60
2023-05-14T20:29:14.697Z,57.42
2023-05-14T20:31:44.883Z,57.72
2023-05-14T20:34:15.068Z,57.22
2023-05-14T20:36:45.315Z,57.27
2023-05-14T20:39:18.447Z,57.02
2023-05-14T20:41:48.275Z,57.07
2023-05-14T20:44:20.370Z,56.71
2023-05-14T20:46:50.749Z,56.38
2023-05-14T20:49:20.810Z,56.02
2023-05-14T20:51:51.009Z,56.10
2023-05-14T20:54:23.658Z,56.50
2023-05-14T20:56:53.943Z,56.95
2023-05-14T20:59:24.077Z,57.36
2023-05-14T21:01:54.210Z,55.65
2023-05-14T21:04:24.279Z,54.98
2023-05-14T21:06:55.233Z,56.05
2023-05-14T21:09:27.936Z,56.22
2023-05-14T21:11:57.998Z,55.92
2023-05-14T21:14:28.178Z,57.04
2023-05-14T21:16:58.211Z,57.04
2023-05-14T21:19:28.254Z,56.94
2023-05-14T21:21:58.500Z,57.08
2023-05-14T21:24:31.445Z,56.89
2023-05-14T21:27:01.736Z,56.94
2023-05-14T21:29:31.988Z,57.11
2023-05-14T21:32:02.236Z,57.14
2023-05-14T21:34:32.524Z,57.61
2023-05-14T21:37:03.169Z,57.86
2023-05-14T21:39:35.695Z,58.33
2023-05-14T21:42:06.309Z,58.33
2023-05-14T21:44:37.239Z,58.16
2023-05-14T21:47:08.752Z,58.66
2023-05-14T21:49:39.244Z,58.36
2023-05-14T21:52:10.088Z,58.68
2023-05-14T21:54:45.785Z,59.06
2023-05-14T21:57:16.348Z,60.60
2023-05-14T21:59:49.148Z,60.85
2023-05-14T22:02:20.391Z,61.45
2023-05-14T22:04:53.774Z,61.18
2023-05-14T22:07:24.522Z,60.97
2023-05-14T22:09:57.968Z,60.44
2023-05-14T22:12:28.346Z,60.00
2023-05-14T22:14:58.966Z,59.59
2023-05-14T22:17:30.704Z,58.64
2023-05-14T22:20:01.393Z,58.85
2023-05-14T22:22:31.908Z,58.71
2023-05-14T22:25:05.238Z,59.07
2023-05-14T22:30:50.800Z,59.97
2023-05-14T22:33:38.314Z,59.83
2023-05-14T22:36:10.817Z,60.39
2023-05-14T22:39:06.061Z,60.67
2023-05-14T22:42:00.141Z,60.42
2023-05-14T22:44:33.532Z,60.60
2023-05-14T22:50:21.211Z,60.68
2023-05-14T22:56:31.988Z,60.20
2023-05-14T22:59:45.628Z,60.30
2023-05-14T23:05:53.372Z,60.24
2023-05-14T23:08:57.738Z,60.60
2023-05-14T23:11:59.272Z,60.69
2023-05-14T23:25:09.822Z,61.35
2023-05-14T23:28:07.678Z,61.34
2023-05-14T23:31:52.042Z,61.60
2023-05-14T23:34:39.594Z,61.54
2023-05-14T23:37:47.633Z,61.50
2023-05-14T23:40:56.093Z,61.44
2023-05-14T23:44:07.034Z,61.67
2023-05-14T23:47:15.621Z,61.43
2023-05-14T23:50:24.121Z,61.56
2023-05-14T23:52:56.202Z,61.53
2023-05-14T23:55:52.920Z,61.79
